Eprise, Alabama
Current Conditions -  °F | °C
As of 6:35 AM on Monday 24 Nov 2014 (Local Time) from KEDN Reporting Station
Broken Clouds Broken Clouds  
Wind Chill: 63°   Ceiling: 1400
Heat Index: 63°   Visibility: 7mi
Dew Point: 63°   Wind: 0mph
Humidity: 100%   Direction: NA
Pressure: 29.82"   Gusts: NA
Location:  31.3153°N, 85.8554°W
Report Text: KEDN 241235Z AUTO 00000KT 7SM SCT003 SCT009 BKN014 17/17 A2982 RMK AO2
Loading
Personal Weather Stations






























Interactive Weather Map New forecast layout! Learn more

10-Day Weather Forecast

Advertisements
Track Severe Weather on mobile